Time;durP1;ratioP1;P1;durP2;ratioP2;P2;SDS_P1;SDS_P2;PMS_P1;PMS_P2;Temp;Humidity;BMP_temperature;BMP_pressure;BME280_temperature;BME280_humidity;BME280_pressure;Samples;Min_cycle;Max_cycle;Signal;HPM_P1;HPM_P2
2022/06/20 00:02:22;;;;;;;6.95;4.15;;;;;;;;;;5052147;28;20041;-71
2022/06/20 00:05:28;;;;;;;7.90;4.28;;;;;;;;;;5039588;28;20041;-70
2022/06/20 00:08:32;;;;;;;9.18;3.92;;;;;;;;;;5052255;28;20369;-70
2022/06/20 00:11:39;;;;;;;10.48;3.83;;;;;;;;;;5052088;28;20045;-71
2022/06/20 00:14:44;;;;;;;7.35;3.60;;;;;;;;;;5051128;28;20037;-70
2022/06/20 00:17:48;;;;;;;5.40;3.60;;;;;;;;;;5052031;28;20044;-70
2022/06/20 00:20:53;;;;;;;5.63;3.63;;;;;;;;;;5051995;28;20045;-70
2022/06/20 00:23:57;;;;;;;8.00;4.30;;;;;;;;;;5052032;28;20044;-70
2022/06/20 00:27:06;;;;;;;8.20;3.90;;;;;;;;;;5051774;28;20053;-70
2022/06/20 00:30:12;;;;;;;7.40;5.07;;;;;;;;;;5051822;28;20504;-71
2022/06/20 00:33:16;;;;;;;9.05;4.57;;;;;;;;;;5050805;28;20493;-71
2022/06/20 00:36:20;;;;;;;11.13;4.60;;;;;;;;;;5050911;28;20362;-71
2022/06/20 00:39:24;;;;;;;8.90;4.95;;;;;;;;;;5051650;28;20437;-71
2022/06/20 00:42:30;;;;;;;10.80;4.78;;;;;;;;;;5051584;28;20366;-70
2022/06/20 00:45:55;;;;;;;10.85;5.60;;;;;;;;;;5051207;28;20041;-71
2022/06/20 00:49:23;;;;;;;10.90;4.90;;;;;;;;;;5050283;28;20394;-71
2022/06/20 00:52:46;;;;;;;14.20;5.05;;;;;;;;;;5051208;28;20037;-71
2022/06/20 00:56:15;;;;;;;13.15;5.05;;;;;;;;;;5051130;28;20041;-71
2022/06/20 00:59:40;;;;;;;8.43;5.25;;;;;;;;;;5041630;28;20040;-72
2022/06/20 01:03:15;;;;;;;13.73;4.97;;;;;;;;;;5050816;28;20037;-72
2022/06/20 01:06:41;;;;;;;8.95;4.80;;;;;;;;;;5050826;28;20045;-72
2022/06/20 01:10:04;;;;;;;11.60;4.60;;;;;;;;;;5050930;28;20036;-72
2022/06/20 01:13:27;;;;;;;9.30;4.70;;;;;;;;;;5050809;28;20045;-72
2022/06/20 01:16:53;;;;;;;13.85;5.55;;;;;;;;;;5050642;28;20037;-72
2022/06/20 01:20:17;;;;;;;13.75;5.50;;;;;;;;;;5049961;28;20037;-72
2022/06/20 01:23:55;;;;;;;13.68;7.00;;;;;;;;;;5050897;28;20056;-71
2022/06/20 01:27:26;;;;;;;13.70;6.57;;;;;;;;;;5050707;28;20047;-70
2022/06/20 01:30:50;;;;;;;7.63;4.78;;;;;;;;;;5049950;28;20036;-70
2022/06/20 01:34:15;;;;;;;9.18;4.85;;;;;;;;;;5049803;28;20033;-71
2022/06/20 01:37:41;;;;;;;8.65;5.28;;;;;;;;;;5050039;28;20033;-72
2022/06/20 01:48:54;;;;;;;8.40;4.95;;;;;;;;;;5050400;28;20036;-70
2022/06/20 01:52:40;;;;;;;9.23;4.78;;;;;;;;;;5050517;28;20041;-70
2022/06/20 01:56:05;;;;;;;17.23;4.72;;;;;;;;;;5050371;28;20496;-70
2022/06/20 01:59:35;;;;;;;14.85;5.38;;;;;;;;;;5052467;28;20045;-71
2022/06/20 02:03:04;;;;;;;13.82;5.47;;;;;;;;;;5054244;28;20037;-71
2022/06/20 02:06:29;;;;;;;9.20;5.18;;;;;;;;;;5054134;28;20053;-71
2022/06/20 02:09:52;;;;;;;12.52;5.30;;;;;;;;;;5054374;28;20492;-71
2022/06/20 02:13:15;;;;;;;13.45;5.10;;;;;;;;;;5054201;28;20509;-70
2022/06/20 02:16:41;;;;;;;12.75;4.90;;;;;;;;;;5053463;28;20036;-70
2022/06/20 02:20:05;;;;;;;9.35;5.63;;;;;;;;;;5053830;28;20539;-71
2022/06/20 02:23:30;;;;;;;9.98;5.07;;;;;;;;;;5053481;28;20045;-70
2022/06/20 02:26:56;;;;;;;9.60;4.90;;;;;;;;;;5053737;28;20041;-70
2022/06/20 02:30:20;;;;;;;9.27;4.55;;;;;;;;;;5053721;28;20029;-71
2022/06/20 02:33:43;;;;;;;9.40;4.85;;;;;;;;;;5053792;28;20044;-70
2022/06/20 02:37:09;;;;;;;11.30;5.38;;;;;;;;;;5054067;28;20041;-70
2022/06/20 02:40:33;;;;;;;11.50;4.85;;;;;;;;;;5052997;28;20048;-71
2022/06/20 02:44:02;;;;;;;12.35;4.78;;;;;;;;;;5053458;28;20041;-71
2022/06/20 02:47:25;;;;;;;7.90;4.90;;;;;;;;;;5053362;28;20429;-71
2022/06/20 02:50:51;;;;;;;7.68;4.82;;;;;;;;;;5053470;28;20377;-71
2022/06/20 02:54:15;;;;;;;15.93;5.78;;;;;;;;;;5053325;28;20049;-70
2022/06/20 02:57:40;;;;;;;12.88;6.10;;;;;;;;;;5052816;28;20040;-70
2022/06/20 03:01:07;;;;;;;13.30;6.05;;;;;;;;;;5053336;28;20037;-71
2022/06/20 03:04:33;;;;;;;15.93;5.90;;;;;;;;;;5053188;28;20041;-71
2022/06/20 03:07:56;;;;;;;16.42;6.10;;;;;;;;;;5053329;28;20041;-72
2022/06/20 03:11:19;;;;;;;9.80;5.47;;;;;;;;;;5052504;28;20037;-72
2022/06/20 03:14:46;;;;;;;14.25;5.80;;;;;;;;;;5052927;28;20045;-72
2022/06/20 03:18:12;;;;;;;24.85;6.32;;;;;;;;;;5052923;28;20033;-72
2022/06/20 03:21:38;;;;;;;12.18;5.75;;;;;;;;;;5052844;28;20045;-71
2022/06/20 03:25:02;;;;;;;7.93;5.65;;;;;;;;;;5052617;28;20051;-71
2022/06/20 03:28:28;;;;;;;12.65;6.35;;;;;;;;;;5052397;28;20036;-72
2022/06/20 03:31:52;;;;;;;21.45;5.68;;;;;;;;;;5051954;28;20036;-71
2022/06/20 03:35:15;;;;;;;17.48;6.15;;;;;;;;;;5052070;28;20040;-71
2022/06/20 03:38:39;;;;;;;18.33;5.70;;;;;;;;;;5052871;28;20393;-72
2022/06/20 03:42:03;;;;;;;17.95;6.53;;;;;;;;;;5052060;28;20029;-71
2022/06/20 03:45:30;;;;;;;20.83;6.60;;;;;;;;;;5052214;28;20053;-72
2022/06/20 03:49:01;;;;;;;25.73;7.47;;;;;;;;;;5052657;28;20051;-72
2022/06/20 03:52:25;;;;;;;24.80;7.45;;;;;;;;;;5052437;28;20032;-72
2022/06/20 03:55:48;;;;;;;12.93;6.05;;;;;;;;;;5051605;28;20041;-72
2022/06/20 03:59:18;;;;;;;173.88;11.60;;;;;;;;;;5052105;28;20393;-72
2022/06/20 04:02:41;;;;;;;17.80;6.93;;;;;;;;;;5052161;28;20405;-71
2022/06/20 04:06:19;;;;;;;18.67;7.38;;;;;;;;;;5051767;28;20060;-71
2022/06/20 04:13:30;;;;;;;14.45;6.10;;;;;;;;;;5051735;28;20033;-72
2022/06/20 04:18:27;;;;;;;16.83;7.15;;;;;;;;;;5051639;28;20044;-72
2022/06/20 04:20:56;;;;;;;11.80;6.72;;;;;;;;;;5051529;28;20052;-72
2022/06/20 04:24:37;;;;;;;22.23;6.47;;;;;;;;;;5050970;28;20057;-72
2022/06/20 04:28:00;;;;;;;;;;;;;;;;;;5051349;28;20044;-72
2022/06/20 04:31:31;;;;;;;10.48;6.70;;;;;;;;;;5051756;28;19916;-72
2022/06/20 04:35:15;;;;;;;15.15;6.60;;;;;;;;;;5051322;28;20132;-72
2022/06/20 04:38:44;;;;;;;14.98;6.22;;;;;;;;;;5051543;28;20428;-72
2022/06/20 04:42:21;;;;;;;29.33;6.68;;;;;;;;;;5050903;28;20043;-72
2022/06/20 04:45:52;;;;;;;22.35;7.47;;;;;;;;;;5050576;28;20527;-72
2022/06/20 04:49:16;;;;;;;26.70;6.85;;;;;;;;;;5051445;28;20029;-72
2022/06/20 04:52:40;;;;;;;23.60;8.27;;;;;;;;;;5051184;28;20520;-72
2022/06/20 04:56:04;;;;;;;20.23;7.82;;;;;;;;;;5051866;28;20033;-72
2022/06/20 04:59:29;;;;;;;25.33;8.10;;;;;;;;;;5053658;28;20048;-72
2022/06/20 05:02:54;;;;;;;23.35;7.80;;;;;;;;;;5053189;28;20046;-71
2022/06/20 05:06:22;;;;;;;20.73;8.23;;;;;;;;;;5053524;28;20131;-72
2022/06/20 05:09:45;;;;;;;21.02;7.72;;;;;;;;;;5051594;28;20041;-72
2022/06/20 05:13:13;;;;;;;23.58;7.53;;;;;;;;;;5050445;28;20168;-72
2022/06/20 05:16:44;;;;;;;19.67;6.93;;;;;;;;;;5050499;28;20033;-72
2022/06/20 05:20:19;;;;;;;19.95;7.40;;;;;;;;;;5051132;28;20033;-72
2022/06/20 05:23:48;;;;;;;31.35;7.85;;;;;;;;;;5051051;28;20049;-72
2022/06/20 05:27:15;;;;;;;31.15;7.95;;;;;;;;;;5050876;28;20048;-72
2022/06/20 05:30:38;;;;;;;20.27;7.03;;;;;;;;;;5050719;28;20041;-72
2022/06/20 05:34:11;;;;;;;16.33;6.88;;;;;;;;;;5050270;28;20045;-72
2022/06/20 05:37:24;;;;;;;17.55;8.30;;;;;;;;;;5050559;28;20033;-71
2022/06/20 05:40:30;;;;;;;21.20;8.65;;;;;;;;;;5050765;28;20033;-68
2022/06/20 05:43:35;;;;;;;27.85;11.93;;;;;;;;;;5050585;28;20052;-67
2022/06/20 05:46:48;;;;;;;31.20;11.65;;;;;;;;;;5050168;28;20080;-67
2022/06/20 05:49:58;;;;;;;28.33;10.95;;;;;;;;;;5050726;28;20396;-67
2022/06/20 05:53:04;;;;;;;29.83;9.55;;;;;;;;;;5050098;28;20044;-68
2022/06/20 05:56:16;;;;;;;23.75;9.82;;;;;;;;;;5050708;28;20045;-69
2022/06/20 05:59:20;;;;;;;18.35;9.38;;;;;;;;;;5050273;28;20054;-68
2022/06/20 06:02:54;;;;;;;20.35;7.60;;;;;;;;;;5050502;28;20041;-67
2022/06/20 06:06:03;;;;;;;34.58;9.65;;;;;;;;;;5050366;28;20052;-68
2022/06/20 06:09:13;;;;;;;26.42;7.43;;;;;;;;;;5049369;28;20409;-67
2022/06/20 06:12:40;;;;;;;19.63;6.28;;;;;;;;;;5050338;28;20037;-67
2022/06/20 06:19:32;;;;;;;25.35;6.97;;;;;;;;;;5050023;28;20052;-67
2022/06/20 06:22:47;;;;;;;14.77;5.70;;;;;;;;;;5048990;28;20052;-67
2022/06/20 06:25:51;;;;;;;19.42;6.07;;;;;;;;;;5050052;28;20041;-67
2022/06/20 06:28:55;;;;;;;21.83;4.60;;;;;;;;;;5048760;28;20037;-68
2022/06/20 06:32:02;;;;;;;10.05;4.68;;;;;;;;;;5049580;28;20044;-65
2022/06/20 06:35:13;;;;;;;11.13;4.25;;;;;;;;;;5049992;28;20500;-67
2022/06/20 06:38:30;;;;;;;16.70;4.22;;;;;;;;;;5050115;28;20060;-65
2022/06/20 06:41:36;;;;;;;11.43;4.00;;;;;;;;;;5049896;28;20449;-67
2022/06/20 06:44:42;;;;;;;21.35;4.35;;;;;;;;;;5050050;28;20053;-66
2022/06/20 06:47:49;;;;;;;17.30;4.55;;;;;;;;;;5053648;28;20056;-67
2022/06/20 06:50:53;;;;;;;15.80;4.45;;;;;;;;;;5053036;28;20469;-67
2022/06/20 06:54:00;;;;;;;14.98;4.85;;;;;;;;;;5053767;28;20397;-68
2022/06/20 06:57:11;;;;;;;25.20;5.75;;;;;;;;;;5053709;28;20045;-68
2022/06/20 07:00:22;;;;;;;16.38;4.90;;;;;;;;;;5053166;28;20041;-67
2022/06/20 07:03:36;;;;;;;14.25;5.32;;;;;;;;;;5052096;28;20048;-66
2022/06/20 07:06:44;;;;;;;18.98;4.70;;;;;;;;;;5052892;28;20554;-67
2022/06/20 07:09:52;;;;;;;17.38;5.47;;;;;;;;;;5053301;28;20045;-66
2022/06/20 07:12:59;;;;;;;10.95;4.25;;;;;;;;;;5053083;28;20083;-66
2022/06/20 07:16:06;;;;;;;10.90;4.38;;;;;;;;;;5052847;28;20033;-63
2022/06/20 07:19:12;;;;;;;17.55;4.65;;;;;;;;;;5053158;28;20503;-66
2022/06/20 07:22:19;;;;;;;18.50;5.38;;;;;;;;;;5051969;28;20056;-64
2022/06/20 07:25:29;;;;;;;15.93;4.57;;;;;;;;;;5052820;28;20047;-66
2022/06/20 07:28:41;;;;;;;9.35;4.65;;;;;;;;;;5053098;28;20425;-66
2022/06/20 07:31:47;;;;;;;14.77;4.55;;;;;;;;;;5052792;28;20029;-67
2022/06/20 07:34:51;;;;;;;32.65;7.25;;;;;;;;;;5052100;28;20037;-67
2022/06/20 07:37:56;;;;;;;17.83;5.15;;;;;;;;;;5052618;28;20037;-66
2022/06/20 07:41:08;;;;;;;11.65;4.80;;;;;;;;;;5052526;28;20033;-64
2022/06/20 07:44:22;;;;;;;12.38;4.35;;;;;;;;;;5052573;28;20052;-67
2022/06/20 07:47:46;;;;;;;17.85;5.55;;;;;;;;;;5052585;28;20604;-66
2022/06/20 07:50:52;;;;;;;13.23;4.65;;;;;;;;;;5052492;28;20310;-64
2022/06/20 07:53:56;;;;;;;8.57;4.20;;;;;;;;;;5052093;28;20048;-67
2022/06/20 07:57:02;;;;;;;8.50;4.05;;;;;;;;;;5052011;28;20032;-66
2022/06/20 08:00:10;;;;;;;7.90;4.10;;;;;;;;;;5052496;28;20041;-67
2022/06/20 08:03:18;;;;;;;7.68;3.90;;;;;;;;;;5052266;28;20040;-67
2022/06/20 08:06:23;;;;;;;9.10;4.00;;;;;;;;;;5051968;28;20512;-67
2022/06/20 08:09:27;;;;;;;11.95;4.85;;;;;;;;;;5052132;28;20387;-67
2022/06/20 08:12:37;;;;;;;12.43;4.10;;;;;;;;;;5052119;28;20063;-66
2022/06/20 08:15:45;;;;;;;7.28;4.05;;;;;;;;;;5051469;28;20684;-67
2022/06/20 08:18:49;;;;;;;13.07;3.88;;;;;;;;;;5051911;28;20036;-66
2022/06/20 08:21:57;;;;;;;8.45;3.83;;;;;;;;;;5050596;28;20064;-68
2022/06/20 08:25:40;;;;;;;7.55;3.42;;;;;;;;;;5051664;28;20041;-67
2022/06/20 08:28:55;;;;;;;19.23;4.82;;;;;;;;;;5049385;28;20335;-66
2022/06/20 08:32:04;;;;;;;12.10;4.07;;;;;;;;;;5049436;28;20045;-67
2022/06/20 08:35:18;;;;;;;9.98;3.08;;;;;;;;;;5051773;28;20051;-67
2022/06/20 08:38:27;;;;;;;9.73;3.47;;;;;;;;;;5051309;28;20037;-67
2022/06/20 08:41:43;;;;;;;7.07;3.23;;;;;;;;;;5049374;28;20041;-67
2022/06/20 08:45:10;;;;;;;9.43;3.45;;;;;;;;;;5050937;28;20036;-70
2022/06/20 08:48:21;;;;;;;7.63;3.08;;;;;;;;;;5049812;28;20041;-68
2022/06/20 08:51:31;;;;;;;5.90;3.10;;;;;;;;;;5050741;28;20037;-75
2022/06/20 08:54:54;;;;;;;8.20;3.42;;;;;;;;;;5050783;28;20180;-71
2022/06/20 08:58:17;;;;;;;11.55;3.60;;;;;;;;;;5050672;28;20045;-69
2022/06/20 09:01:24;;;;;;;6.45;3.85;;;;;;;;;;5050814;28;20496;-68
2022/06/20 09:04:37;;;;;;;12.63;4.18;;;;;;;;;;5050756;28;20037;-72
2022/06/20 09:07:45;;;;;;;11.32;4.20;;;;;;;;;;5050807;28;20059;-75
2022/06/20 09:11:00;;;;;;;11.77;3.95;;;;;;;;;;5048804;28;20040;-73
2022/06/20 09:14:23;;;;;;;8.82;3.92;;;;;;;;;;5050085;28;20052;-72
2022/06/20 09:17:39;;;;;;;9.77;4.30;;;;;;;;;;5050327;28;20208;-74
2022/06/20 09:20:44;;;;;;;8.25;4.68;;;;;;;;;;5049427;28;20037;-73
2022/06/20 09:23:57;;;;;;;6.80;4.30;;;;;;;;;;5050845;28;20061;-74
2022/06/20 09:27:04;;;;;;;9.40;4.63;;;;;;;;;;5050654;28;20045;-72
2022/06/20 09:30:12;;;;;;;10.82;4.43;;;;;;;;;;5049078;28;20378;-70
2022/06/20 09:33:19;;;;;;;7.93;4.35;;;;;;;;;;5047971;28;20041;-67
2022/06/20 09:36:24;;;;;;;12.57;5.00;;;;;;;;;;5048977;28;20500;-68
2022/06/20 09:39:46;;;;;;;8.10;4.22;;;;;;;;;;5047835;28;20047;-67
2022/06/20 09:42:58;;;;;;;9.77;5.32;;;;;;;;;;5048883;28;20045;-66
2022/06/20 09:46:11;;;;;;;14.77;4.68;;;;;;;;;;5050584;28;20057;-65
2022/06/20 09:49:18;;;;;;;6.53;4.00;;;;;;;;;;5050962;28;20033;-67
2022/06/20 09:52:28;;;;;;;12.63;4.18;;;;;;;;;;5050452;28;20057;-66
2022/06/20 09:55:53;;;;;;;6.57;4.03;;;;;;;;;;5050492;28;20419;-66
2022/06/20 09:59:04;;;;;;;6.43;4.03;;;;;;;;;;5050083;28;20044;-66
2022/06/20 10:02:15;;;;;;;8.77;3.70;;;;;;;;;;5050393;28;20041;-66
2022/06/20 10:05:25;;;;;;;7.53;3.80;;;;;;;;;;5050112;28;20041;-66
2022/06/20 10:08:35;;;;;;;11.85;4.00;;;;;;;;;;5050528;28;20484;-66
2022/06/20 10:11:48;;;;;;;7.05;3.95;;;;;;;;;;5050502;28;20049;-66
2022/06/20 10:15:12;;;;;;;7.85;4.13;;;;;;;;;;5050470;28;20045;-66
2022/06/20 10:18:39;;;;;;;27.70;4.75;;;;;;;;;;5050177;28;20136;-66
2022/06/20 10:21:52;;;;;;;15.00;4.00;;;;;;;;;;5052216;28;20053;-66
2022/06/20 10:25:15;;;;;;;8.02;4.25;;;;;;;;;;5054176;28;20049;-66
2022/06/20 10:28:25;;;;;;;8.65;3.70;;;;;;;;;;5053321;28;20049;-67
2022/06/20 10:31:44;;;;;;;8.18;3.30;;;;;;;;;;5054195;28;20473;-66
2022/06/20 10:34:53;;;;;;;6.65;3.38;;;;;;;;;;5053935;28;20485;-66
2022/06/20 10:37:57;;;;;;;7.17;2.97;;;;;;;;;;5053899;28;20037;-66
2022/06/20 10:41:05;;;;;;;11.02;3.05;;;;;;;;;;5053093;28;20366;-66
2022/06/20 10:44:09;;;;;;;7.28;3.30;;;;;;;;;;5053466;28;20037;-66
2022/06/20 10:47:19;;;;;;;6.50;3.30;;;;;;;;;;5053709;28;20045;-66
2022/06/20 10:50:30;;;;;;;9.63;3.40;;;;;;;;;;5053524;28;20041;-66
2022/06/20 10:53:53;;;;;;;4.55;2.67;;;;;;;;;;5053362;28;20041;-66
2022/06/20 10:57:03;;;;;;;5.22;3.10;;;;;;;;;;5053394;28;20041;-67
2022/06/20 11:00:10;;;;;;;5.75;2.83;;;;;;;;;;5053656;28;20041;-67
2022/06/20 11:03:31;;;;;;;12.27;3.08;;;;;;;;;;5053185;28;20041;-67
2022/06/20 11:06:54;;;;;;;6.72;2.60;;;;;;;;;;5053383;28;20045;-66
2022/06/20 11:10:13;;;;;;;3.97;2.85;;;;;;;;;;5053066;28;20041;-66
2022/06/20 11:13:27;;;;;;;7.57;2.67;;;;;;;;;;5053212;28;20045;-66
2022/06/20 11:16:31;;;;;;;8.77;2.97;;;;;;;;;;5053640;28;20374;-66
2022/06/20 11:19:55;;;;;;;5.15;3.10;;;;;;;;;;5053176;28;20033;-66
2022/06/20 11:23:07;;;;;;;7.43;2.97;;;;;;;;;;5052303;28;20049;-66
2022/06/20 11:26:15;;;;;;;14.35;2.97;;;;;;;;;;5052953;28;20489;-66
2022/06/20 11:29:33;;;;;;;8.95;3.08;;;;;;;;;;5053016;28;20064;-66
2022/06/20 11:32:50;;;;;;;6.40;2.80;;;;;;;;;;5052617;28;20484;-66
2022/06/20 11:36:02;;;;;;;7.30;2.60;;;;;;;;;;5052773;28;20037;-66
2022/06/20 11:39:25;;;;;;;6.35;3.15;;;;;;;;;;5053023;28;20045;-66
2022/06/20 11:42:45;;;;;;;7.20;2.70;;;;;;;;;;5052610;28;20406;-66
2022/06/20 11:45:49;;;;;;;;;;;;;;;;;;5052958;28;20350;-66
2022/06/20 11:49:03;;;;;;;5.55;2.55;;;;;;;;;;5052748;28;19915;-66
2022/06/20 11:52:16;;;;;;;7.50;3.00;;;;;;;;;;5052506;28;20037;-66
2022/06/20 11:55:33;;;;;;;5.60;2.88;;;;;;;;;;5052769;28;20049;-66
2022/06/20 11:58:57;;;;;;;5.53;2.60;;;;;;;;;;5052223;28;20037;-66
2022/06/20 12:02:13;;;;;;;5.93;2.70;;;;;;;;;;5051928;28;20037;-67
2022/06/20 12:05:28;;;;;;;11.20;2.80;;;;;;;;;;5052349;28;20160;-67
2022/06/20 12:08:41;;;;;;;7.35;2.60;;;;;;;;;;5052195;28;20048;-66
2022/06/20 12:11:54;;;;;;;5.57;2.63;;;;;;;;;;5052234;28;20037;-68
2022/06/20 12:15:22;;;;;;;7.68;2.55;;;;;;;;;;5051762;28;20481;-69
2022/06/20 12:18:26;;;;;;;8.55;2.80;;;;;;;;;;5052005;28;20045;-67
2022/06/20 12:24:54;;;;;;;3.60;2.33;;;;;;;;;;5051907;28;20335;-67
2022/06/20 12:27:59;;;;;;;10.57;2.53;;;;;;;;;;5051723;28;20053;-67
2022/06/20 12:31:11;;;;;;;6.22;2.47;;;;;;;;;;5052032;28;20047;-67
2022/06/20 12:34:15;;;;;;;7.90;2.10;;;;;;;;;;5050755;28;20044;-66
2022/06/20 12:37:29;;;;;;;11.25;3.00;;;;;;;;;;5051856;28;20374;-65
2022/06/20 12:40:39;;;;;;;7.43;2.50;;;;;;;;;;5051437;28;20041;-64
2022/06/20 12:43:47;;;;;;;6.90;2.63;;;;;;;;;;5050681;28;20041;-68
2022/06/20 12:47:01;;;;;;;6.03;2.30;;;;;;;;;;5050899;28;20040;-69
2022/06/20 12:50:05;;;;;;;10.70;2.60;;;;;;;;;;5051080;28;20045;-69
2022/06/20 12:53:17;;;;;;;6.63;2.58;;;;;;;;;;5050894;28;20044;-68
2022/06/20 12:56:42;;;;;;;15.23;2.65;;;;;;;;;;5051185;28;20045;-67
2022/06/20 12:59:52;;;;;;;7.45;2.60;;;;;;;;;;5050495;28;20029;-69
2022/06/20 13:03:11;;;;;;;7.78;2.25;;;;;;;;;;5050909;28;20040;-68
2022/06/20 13:06:31;;;;;;;6.95;2.50;;;;;;;;;;5051211;28;20041;-68
2022/06/20 13:09:53;;;;;;;8.40;2.45;;;;;;;;;;5051180;28;20581;-70
2022/06/20 13:13:00;;;;;;;3.83;2.35;;;;;;;;;;5051107;28;20041;-69
2022/06/20 13:16:22;;;;;;;3.75;2.20;;;;;;;;;;5050724;28;20025;-69
2022/06/20 13:19:27;;;;;;;7.80;2.58;;;;;;;;;;5050689;28;20033;-68
2022/06/20 13:22:34;;;;;;;3.05;2.03;;;;;;;;;;5050620;28;20041;-69
2022/06/20 13:25:50;;;;;;;6.13;2.10;;;;;;;;;;5050905;28;20481;-69
2022/06/20 13:29:01;;;;;;;6.82;2.30;;;;;;;;;;5051310;28;20049;-68
2022/06/20 13:32:24;;;;;;;3.75;2.38;;;;;;;;;;5050551;28;20040;-68
2022/06/20 13:35:31;;;;;;;5.38;2.03;;;;;;;;;;5050929;28;20431;-70
2022/06/20 13:38:38;;;;;;;7.68;2.78;;;;;;;;;;5050857;28;20037;-69
2022/06/20 13:41:48;;;;;;;7.63;2.63;;;;;;;;;;5050618;28;20037;-69
2022/06/20 13:44:58;;;;;;;5.60;1.90;;;;;;;;;;5050826;28;20366;-69
2022/06/20 13:48:12;;;;;;;3.72;2.40;;;;;;;;;;5050632;28;20045;-70
2022/06/20 13:51:35;;;;;;;10.68;2.60;;;;;;;;;;5050768;28;20033;-69
2022/06/20 13:54:45;;;;;;;5.18;2.90;;;;;;;;;;5051302;28;20044;-69
2022/06/20 13:58:08;;;;;;;5.23;2.67;;;;;;;;;;5053198;28;20041;-69
2022/06/20 14:01:15;;;;;;;9.32;3.00;;;;;;;;;;5053539;28;20041;-70
2022/06/20 14:04:20;;;;;;;10.23;2.80;;;;;;;;;;5054320;28;20113;-69
2022/06/20 14:07:29;;;;;;;9.85;3.63;;;;;;;;;;5054352;28;20402;-68
2022/06/20 14:10:37;;;;;;;4.50;2.47;;;;;;;;;;5054484;28;20040;-68
2022/06/20 14:13:46;;;;;;;6.43;2.42;;;;;;;;;;5054386;28;20037;-69
2022/06/20 14:16:56;;;;;;;9.70;2.97;;;;;;;;;;5054485;28;20033;-70
2022/06/20 14:20:07;;;;;;;5.43;2.30;;;;;;;;;;5054488;28;20037;-69
2022/06/20 14:23:17;;;;;;;3.22;2.50;;;;;;;;;;5053760;28;20480;-69
2022/06/20 14:26:22;;;;;;;;;;;;;;;;;;5054325;28;20037;-70
2022/06/20 14:29:28;;;;;;;9.55;2.40;;;;;;;;;;5053776;28;20415;-70
2022/06/20 14:32:45;;;;;;;4.63;2.45;;;;;;;;;;5053944;28;20037;-69
2022/06/20 14:35:52;;;;;;;5.20;2.25;;;;;;;;;;5053934;28;20053;-68
2022/06/20 14:39:15;;;;;;;7.07;2.30;;;;;;;;;;5054009;28;20029;-69
2022/06/20 14:42:21;;;;;;;7.80;2.60;;;;;;;;;;5053660;28;20108;-66
2022/06/20 14:45:28;;;;;;;9.52;2.35;;;;;;;;;;5053826;28;20033;-65
2022/06/20 14:48:38;;;;;;;4.35;2.08;;;;;;;;;;5053462;28;20049;-67
2022/06/20 14:51:44;;;;;;;7.00;2.45;;;;;;;;;;5053430;28;20033;-67
2022/06/20 14:54:56;;;;;;;3.83;1.88;;;;;;;;;;5053831;28;20329;-67
2022/06/20 14:58:00;;;;;;;10.10;2.55;;;;;;;;;;5053626;28;20103;-64
2022/06/20 15:01:09;;;;;;;7.70;3.42;;;;;;;;;;5053808;28;20052;-67
2022/06/20 15:04:29;;;;;;;7.00;2.88;;;;;;;;;;5053544;28;20044;-66
2022/06/20 15:07:40;;;;;;;7.65;2.13;;;;;;;;;;5052430;28;20048;-65
2022/06/20 15:10:54;;;;;;;8.48;2.35;;;;;;;;;;5053002;28;20032;-66
2022/06/20 15:14:25;;;;;;;3.95;2.15;;;;;;;;;;5053027;28;20045;-64
2022/06/20 15:17:31;;;;;;;9.73;2.60;;;;;;;;;;5052372;28;20045;-65
2022/06/20 15:20:40;;;;;;;6.13;2.30;;;;;;;;;;5053264;28;20041;-65
2022/06/20 15:23:47;;;;;;;6.00;2.60;;;;;;;;;;5052910;28;20049;-66
2022/06/20 15:26:56;;;;;;;5.68;2.95;;;;;;;;;;5052611;28;20593;-67
2022/06/20 15:30:21;;;;;;;4.63;2.15;;;;;;;;;;5052800;28;20041;-66
2022/06/20 15:33:25;;;;;;;4.60;1.70;;;;;;;;;;5054630;28;20041;-67
2022/06/20 15:36:29;;;;;;;4.50;2.20;;;;;;;;;;5052768;28;20056;-67
2022/06/20 15:39:37;;;;;;;6.70;2.58;;;;;;;;;;5052400;28;20113;-67
2022/06/20 15:43:04;;;;;;;6.70;2.17;;;;;;;;;;5052303;28;20373;-66
2022/06/20 15:46:21;;;;;;;5.03;2.38;;;;;;;;;;5052519;28;20041;-67
2022/06/20 15:49:31;;;;;;;11.98;2.78;;;;;;;;;;5052616;28;20180;-67
2022/06/20 15:52:54;;;;;;;5.03;2.70;;;;;;;;;;5052137;28;20397;-67
2022/06/20 15:56:10;;;;;;;10.77;2.38;;;;;;;;;;5052077;28;20033;-66
2022/06/20 15:59:17;;;;;;;8.10;2.60;;;;;;;;;;5052168;28;20041;-68
2022/06/20 16:02:22;;;;;;;7.70;2.60;;;;;;;;;;5051954;28;20036;-67
2022/06/20 16:05:26;;;;;;;6.05;3.10;;;;;;;;;;5052229;28;20037;-66
2022/06/20 16:08:48;;;;;;;6.85;2.42;;;;;;;;;;5052670;28;20045;-66
2022/06/20 16:12:03;;;;;;;4.55;2.50;;;;;;;;;;5052045;28;20033;-66
2022/06/20 16:15:11;;;;;;;7.63;2.30;;;;;;;;;;5051809;28;20036;-67
2022/06/20 16:18:17;;;;;;;16.55;3.85;;;;;;;;;;5051780;28;20476;-67
2022/06/20 16:21:26;;;;;;;7.78;2.58;;;;;;;;;;5051430;28;20048;-68
2022/06/20 16:24:36;;;;;;;9.15;2.58;;;;;;;;;;5051885;28;20033;-66
2022/06/20 16:27:41;;;;;;;9.63;2.50;;;;;;;;;;5051699;28;20049;-66
2022/06/20 16:31:06;;;;;;;8.95;2.90;;;;;;;;;;5051685;28;20037;-67
2022/06/20 16:34:25;;;;;;;5.05;2.45;;;;;;;;;;5051895;28;20036;-65
2022/06/20 16:37:31;;;;;;;14.90;5.43;;;;;;;;;;5051561;28;20059;-66
2022/06/20 16:40:54;;;;;;;11.63;3.83;;;;;;;;;;5051300;28;20041;-66
2022/06/20 16:44:15;;;;;;;6.97;3.20;;;;;;;;;;5051618;28;20037;-65
2022/06/20 16:47:39;;;;;;;9.80;2.97;;;;;;;;;;5050836;28;20053;-66
2022/06/20 16:50:43;;;;;;;10.85;2.72;;;;;;;;;;5052824;28;20473;-66
2022/06/20 16:53:55;;;;;;;9.52;2.72;;;;;;;;;;5051037;28;20402;-66
2022/06/20 16:57:03;;;;;;;6.47;2.90;;;;;;;;;;5050777;28;20048;-66
2022/06/20 17:00:12;;;;;;;4.88;2.17;;;;;;;;;;5051217;28;20045;-66
2022/06/20 17:03:25;;;;;;;7.45;2.83;;;;;;;;;;5050094;28;20041;-65
2022/06/20 17:06:39;;;;;;;9.15;2.85;;;;;;;;;;5050985;28;20045;-66
2022/06/20 17:09:53;;;;;;;9.77;2.80;;;;;;;;;;5051057;28;20049;-66
2022/06/20 17:13:23;;;;;;;8.02;2.47;;;;;;;;;;5050741;28;20029;-66
2022/06/20 17:16:42;;;;;;;7.90;3.15;;;;;;;;;;5050559;28;20378;-66
2022/06/20 17:19:57;;;;;;;5.95;2.55;;;;;;;;;;5051388;28;20029;-67
2022/06/20 17:23:02;;;;;;;9.05;2.45;;;;;;;;;;5050401;28;20053;-67
2022/06/20 17:26:06;;;;;;;17.92;4.18;;;;;;;;;;5050962;28;20488;-66
2022/06/20 17:29:40;;;;;;;7.07;2.70;;;;;;;;;;5050482;28;20051;-66
2022/06/20 17:32:44;;;;;;;8.02;3.45;;;;;;;;;;5050633;28;20041;-65
2022/06/20 17:35:50;;;;;;;7.28;3.25;;;;;;;;;;5050925;28;20048;-66
2022/06/20 17:38:55;;;;;;;9.60;4.35;;;;;;;;;;5050700;28;20033;-66
2022/06/20 17:42:14;;;;;;;15.57;5.38;;;;;;;;;;5050388;28;20041;-64
2022/06/20 17:45:18;;;;;;;9.57;5.07;;;;;;;;;;5049661;28;20040;-65
2022/06/20 17:48:25;;;;;;;11.02;5.80;;;;;;;;;;5050007;28;20049;-65
2022/06/20 17:51:39;;;;;;;8.70;4.60;;;;;;;;;;5050391;28;20049;-65
2022/06/20 17:54:49;;;;;;;23.80;5.60;;;;;;;;;;5050601;28;20040;-65
2022/06/20 17:58:10;;;;;;;11.10;4.40;;;;;;;;;;5050641;28;20484;-65
2022/06/20 18:01:33;;;;;;;11.63;4.40;;;;;;;;;;5050451;28;20499;-65
2022/06/20 18:04:39;;;;;;;11.00;3.67;;;;;;;;;;5050333;28;20059;-65
2022/06/20 18:07:48;;;;;;;9.90;2.92;;;;;;;;;;5050006;28;20040;-65
2022/06/20 18:10:52;;;;;;;17.65;3.22;;;;;;;;;;5050484;28;20033;-66
2022/06/20 18:13:59;;;;;;;13.88;2.70;;;;;;;;;;5050326;28;20112;-65
2022/06/20 18:17:16;;;;;;;14.10;3.13;;;;;;;;;;5050384;28;20211;-66
2022/06/20 18:20:23;;;;;;;12.13;4.32;;;;;;;;;;5050402;28;20037;-66
2022/06/20 18:23:35;;;;;;;14.30;3.25;;;;;;;;;;5050286;28;20488;-65
2022/06/20 18:26:39;;;;;;;19.50;3.65;;;;;;;;;;5050086;28;20442;-66
2022/06/20 18:29:44;;;;;;;12.65;3.00;;;;;;;;;;5050249;28;20045;-65
2022/06/20 18:32:50;;;;;;;6.32;2.70;;;;;;;;;;5049931;28;20041;-65
2022/06/20 18:35:56;;;;;;;15.07;3.80;;;;;;;;;;5050343;28;20045;-65
2022/06/20 18:39:18;;;;;;;11.75;3.10;;;;;;;;;;5050100;28;20388;-65
2022/06/20 18:42:22;;;;;;;12.40;3.17;;;;;;;;;;5050850;28;20033;-65
2022/06/20 18:45:32;;;;;;;13.73;3.45;;;;;;;;;;5053585;28;20048;-64
2022/06/20 18:48:39;;;;;;;12.13;2.90;;;;;;;;;;5053534;28;20056;-67
2022/06/20 18:51:49;;;;;;;6.28;3.33;;;;;;;;;;5053751;28;20044;-71
2022/06/20 18:54:59;;;;;;;12.45;3.15;;;;;;;;;;5052349;28;20041;-71
2022/06/20 18:58:15;;;;;;;22.67;4.70;;;;;;;;;;5053777;28;20476;-71
2022/06/20 19:01:33;;;;;;;9.90;3.00;;;;;;;;;;5053202;28;20484;-72
2022/06/20 19:04:40;;;;;;;9.23;2.88;;;;;;;;;;5052740;28;20041;-71
2022/06/20 19:08:14;;;;;;;10.85;3.13;;;;;;;;;;5053709;28;20048;-72
2022/06/20 19:11:21;;;;;;;8.60;3.10;;;;;;;;;;5051328;28;20044;-72
2022/06/20 19:14:25;;;;;;;13.93;3.35;;;;;;;;;;5053322;28;20398;-71
2022/06/20 19:17:41;;;;;;;11.13;3.58;;;;;;;;;;5053156;28;20043;-71
2022/06/20 19:20:55;;;;;;;10.85;3.75;;;;;;;;;;5051851;28;20041;-72
2022/06/20 19:24:01;;;;;;;8.30;3.50;;;;;;;;;;5053574;28;20416;-68
2022/06/20 19:27:13;;;;;;;16.65;3.92;;;;;;;;;;5053229;28;20041;-69
2022/06/20 19:30:19;;;;;;;14.82;5.25;;;;;;;;;;5053414;28;20060;-69
2022/06/20 19:33:30;;;;;;;14.38;8.10;;;;;;;;;;5052160;28;20104;-69
2022/06/20 19:36:36;;;;;;;8.25;3.90;;;;;;;;;;5052440;28;20033;-71
2022/06/20 19:39:49;;;;;;;7.22;3.83;;;;;;;;;;5052923;28;20037;-70
2022/06/20 19:42:58;;;;;;;8.60;3.72;;;;;;;;;;5052830;28;20339;-71